Down Up Stop Top

TXC259
There are no active watches, warnings or advisories

Record high temperature 111.6°F Record low temperature 13.3°F Record high gust 49.5 mph Record high average 32.4 mph Record daily rain 4.23 in. Record low windchill 4.3°F Record high barometer 30.637 in. Record low barometer 28.496 in.
Daily high pressure 30.017 in. Daily low pressure 29.840 in. Daily low windchill 92.1°F Daily high heat index 87.7°F Daily high gust speed 24.2 mph ESE Daily high average speed 18.5 mph ESE
Welfare-Texas Weather
LAST READING AT TIME: 20:05 DATE: August 28 2014, time of next update: 20:10
Current WeatherDry Current Temperature 92.1°F (33.4°C) (Heat Index 87.7°F ), Apparent temp 87.3°F
Maximum Temperature (since midnight)92.1°F at: 00:00 Minimum Temperature (since midnight)92.1°F at: 00:00
Average windspeed (ten minute)9.4 mph Wind Direction (ten minute)ESE (111°)
Heat Index 87.7°F Maximum Gust (last hour)24.2 mph at: 19:23
Maximum Gust (since midnight)24.2 mph at: 19:23 Maximum 1 minute average (since midnight)18.5 mph at: 19:23
Rainfall (last hour)0.00 in. (0.0 mm) Rainfall (since midnight)0.00 in. (0.0 mm) ---
Rainfall This month 0.00 in. (0.0 mm) Rainfall To date this year 4.57 in. (116.0 mm)
Maximum rain per minute (last hour)0.00 in/min Maximum rain per hour (last 6 hours)0.00 in/hour
Yesterdays rainfall 0.00 in DewPoint 19.2°F (Wet Bulb :60.2°F )
Humidity 7 %, Humidex 85.7°F Barometer corrected to msl29.870 in. (1011.5 hPa)
Pressure change +0.03 in. (last hour) Trend (last hour)RISING SLOWLY
Pressure change (last 12 hours)-0.12 in Pressure change (last 6 hours)-0.06 in

This page is updated from recent data collected by a WMR200 weather station Use the Reload or Refresh facility on your browser to retrieve the latest data.


Click here for the last 24 hour graph
Click here for the last 48 hour graph
Click here for the last 72 hour graph
Click here for the month to date graph


Weather report/warning/Metars

SAN ANTONIO INTERNATIONAL  AIRPORT , TX, United States (KSAT) 29-32N 098-28W 243M
Aug 28, 2014 - 08:51 PM EDT / 2014.08.29 0051 UTC
Wind: from the ESE (110 degrees) at 12 MPH (10 KT):0
Visibility: 10 mile(s):0
Sky conditions: mostly clear
Weather: Towering cumulus clouds observed
Temperature: 87.1 F (30.6 C)
Dew Point: 70.0 F (21.1 C)
Relative Humidity: 56%
Pressure (altimeter): 29.85 in. Hg (1010 hPa)
ob: KSAT 290051Z 11010KT 10SM FEW060 FEW250 31/21 A2985 RMK AO2 SLP087 TCU DSNT W T03060211
cycle: 1
NEW BRAUNFELS MUNICIPAL AIRPORT, TX, United States (KBAZ) 29-43N 98-03W 195M
Aug 28, 2014 - 08:51 PM EDT / 2014.08.29 0051 UTC
Wind: from the SE (140 degrees) at 8 MPH (7 KT):0
Visibility: 10 mile(s):0
Sky conditions: clear
Temperature: 84.0 F (28.9 C)
Dew Point: 72.0 F (22.2 C)
Relative Humidity: 67%
Pressure (altimeter): 29.84 in. Hg (1010 hPa)
ob: KBAZ 290051Z AUTO 14007KT 10SM CLR 29/22 A2984 RMK AO2 SLP096 T02890222
cycle: 1
Kerrville, Kerrville Municipal Airport/Louis Schreiner Field, TX, United States (KERV) 29-58N 099-05W
Aug 28, 2014 - 08:55 PM EDT / 2014.08.29 0055 UTC
Wind: from the SE (140 degrees) at 13 MPH (11 KT):0
Visibility: 10 mile(s):0
Sky conditions: mostly cloudy
Temperature: 86.4 F (30.2 C)
Dew Point: 68.0 F (20.0 C)
Relative Humidity: 54%
Pressure (altimeter): 29.87 in. Hg (1011 hPa)
ob: KERV 290055Z AUTO 14011KT 10SM SCT070 BKN085 30/20 A2987 RMK AO2 T03020200
cycle: 1
BANGOR INT'L AIRPORT, ME, United States (KBGR) 44-48N 068-49W 57M
Aug 28, 2014 - 08:53 PM EDT / 2014.08.29 0053 UTC
Wind: from the NW (310 degrees) at 10 MPH (9 KT):0
Visibility: 10 mile(s):0
Sky conditions: mostly clear
Temperature: 63.0 F (17.2 C)
Dew Point: 48.9 F (9.4 C)
Relative Humidity: 60%
Pressure (altimeter): 29.86 in. Hg (1011 hPa)
ob: KBGR 290053Z 31009KT 10SM FEW095 17/09 A2986 RMK AO2 SLP109 T01720094
cycle: 1



The data is logged at two minute intervals, but there is data recorded every minute.

Use the RELOAD facility on your browser to retrieve the latest data.

Click here for a daily update of the averages/extremes to date for the month


Created by "Weather Display" software version 10.37R Build 23 at this start time/date 06:34 6/14/2014